Tiempo atmosférico en la estación meteorológica de Campos, Salines Llevant, Illes Balears (3 m.)



Fecha
DESCASC
Temp. máxima en grados centígrados (hora)
DESCASC
Temp. mínima en grados centígrados (hora)
DESCASC
Temp. media en grados centígrados
DESCASC
Racha de viento máxima en m/sg (hora)
DESCASC
Velocidad máxima media en intervalos de 10 minutos(hora)
DESCASC
Precipitaciones diarias en mm
DESCASC
Precipitaciones de 00:00 a 06:00 en mm
DESCASC
Precipitaciones de 06:00 a 12:00 en mm
DESCASC
Precipitaciones de 12:00 a 18:00 en mm
DESCASC
Precipitaciones de 18:00 a 24:00 en mm
DESCASC
31-03-2020 17.8 (13:20) 11.4 (00:00) 14.6 13.61 (12:00) 8.33 (12:20) 0.8 0 0 0.8 0
30-03-2020 18.4 (15:00) 6.2 (07:50) 12.3 8.89 (13:50) 5.56 (13:40) 0 0 0 0 0
29-03-2020 18.1 (14:20) 5.5 (00:00) 11.8 10.28 (15:40) 7.22 (16:40) 0 0 0 0 0
28-03-2020 14.9 (12:40) 3.1 (00:00) 9 6.11 (11:20) 3.89 (11:10) 10.2 0 0 10.2 0
27-03-2020 16.3 (14:50) 2.9 (00:00) 9.6 6.94 (11:10) 4.72 (11:40) 0 0 0 0 0
26-03-2020 11.6 (12:30) 3.4 (00:00) 7.5 9.17 (15:50) 5.56 (15:50) 9.6 0.2 7 0.8 1.6
25-03-2020 14.5 (13:20) 2.8 (00:00) 8.6 10.56 (11:30) 5.83 (10:00) 0.6 0.2 0.4 0 0
24-03-2020 16.3 (10:40) 9.6 (00:00) 12.9 14.72 (15:10) 8.89 (15:10) 0.2 0.2 0 0 0
23-03-2020 19.3 (14:00) 5.8 (00:00) 12.5 10 (16:50) 6.39 (16:00) 0 0 0 0 0
22-03-2020 18.5 (16:30) 8.9 (02:40) 13.7 7.78 (11:20) 5 (11:30) 1 0 0 1 0
21-03-2020 19 (12:10) 11 (00:00) 15 10 (13:10) 6.11 (11:50) 0 0 0 0 0
20-03-2020 18.1 (14:20) 9.2 (00:00) 13.7 11.11 (11:20) 7.5 (11:50) 0 0 0 0 0
19-03-2020 18.4 (12:00) 9.5 (00:00) 13.9 9.72 (16:40) 6.39 (16:50) 0 0 0 0 0
18-03-2020 18.7 (13:10) 11.7 (00:00) 15.2 9.17 (13:30) 5.83 (12:50) 0 0 0 0 0
17-03-2020 18.3 (14:10) 15.1 (00:00) 16.7 14.17 (14:40) 8.89 (16:30) 0.2 0.2 0 0 0
16-03-2020 18.1 (16:10) 9.3 (00:00) 13.7 13.61 (13:30) 8.61 (12:40) 1 0 1 0 0
15-03-2020 18.2 (14:40) 3.8 (00:00) 11 10.28 (11:40) 6.11 (16:50) 0 0 0 0 0
14-03-2020 20.1 (12:50) 7.3 (00:00) 13.7 7.22 (13:10) 4.44 (14:00) 0.8 0.8 0 0 0
13-03-2020 21.8 (15:00) 7.3 (01:40) 14.5 10.56 (15:40) 7.5 (11:20) 0 0 0 0 0
12-03-2020 22.8 (15:40) 6.2 (00:00) 14.5 7.22 (13:40) 4.44 (13:50) 0 0 0 0 0
11-03-2020 18.9 (11:50) 6.1 (00:00) 12.5 7.78 (14:10) 5.28 (14:20) 0 0 0 0 0
10-03-2020 17.2 (11:10) 4.2 (00:00) 10.7 11.67 (16:40) 6.67 (16:10) 0 0 0 0 0
09-03-2020 17.9 (10:40) 5.2 (00:00) 11.5 11.11 (11:10) 8.61 (11:10) 0 0 0 0 0
08-03-2020 18.1 (15:00) 4.4 (00:00) 11.3 10.56 (16:00) 8.33 (16:00) 0 0 0 0 0
07-03-2020 17 (14:00) 3.1 (00:00) 10 10.83 (00:40) 7.22 (00:40) 0 0 0 0 0
06-03-2020 17.9 (12:50) 8.2 (00:00) 13 21.67 (18:40) 12.78 (20:10) 0 0 0 0 0
05-03-2020 19.3 (14:30) 7.8 (00:00) 13.5 12.22 (13:20) 8.06 (20:20) 0 0 0 0 0
04-03-2020 17.7 (15:40) 4.7 (00:00) 11.2 9.72 (14:40) 6.11 (01:40) 0 0 0 0 0
03-03-2020 18.3 (21:50) 11 (00:00) 14.6 20.83 (00:50) 14.44 (21:50) 0 0 0 0 0

Gráficas

Temp. máximas Temp. mínimas Temp. medias Precipitaciones Rachas de viento máximas Velocidades máximas media en intervalos de 10 minutos

Datos horarios

Fecha y hora oficial Temperatura (ºC) Velocidad del viento (km/h) Dirección del viento Racha (km/h) Dirección de racha Precipitación (mm) Presión (hPa) Tendencia (hPa) Humedad (%)
2020-04-01 23:00:00 15.4 8 Sur 14 Sur 0 -- -- 92
2020-04-01 22:00:00 15.6 9 Sur 20 Sudoeste 0 -- -- 90
2020-04-01 21:00:00 15.5 8 Sudoeste 19 Sudoeste 0 -- -- 89
2020-04-01 20:00:00 16.2 9 Sudoeste 24 Sudoeste 0 -- -- 86
2020-04-01 19:00:00 16.5 15 Sudoeste 24 Sudoeste 0 -- -- 84
2020-04-01 18:00:00 17.9 13 Sudoeste 25 Sudoeste 0 -- -- 78
2020-04-01 17:00:00 18.1 13 Sudoeste 28 Oeste 0 -- -- 79
2020-04-01 16:00:00 18.5 16 Sudoeste 29 Oeste 0 -- -- 78
2020-04-01 15:00:00 18.9 16 Sudoeste 31 Sudoeste 0 -- -- 78
2020-04-01 14:00:00 18 16 Sudoeste 28 Sudoeste 0 -- -- 81
2020-04-01 13:00:00 18.2 15 Sudoeste 28 Sudoeste 0 -- -- 81
2020-04-01 12:00:00 17.7 12 Sur 18 Sur 0 -- -- 82
2020-04-01 11:00:00 17.6 14 Sudeste 21 Sudeste 0 -- -- 84
2020-04-01 10:00:00 16.5 12 Sudeste 22 Sudeste 0 -- -- 91
2020-04-01 09:00:00 15.7 12 Sudeste 25 Sudeste 0 -- -- 93
2020-04-01 08:00:00 14.9 11 Este 26 Este 0 -- -- 94
2020-04-01 07:00:00 15.1 11 Este 24 Este 0 -- -- 92
2020-04-01 06:00:00 15.1 14 Este 26 Este 0 -- -- 92
2020-04-01 05:00:00 15.2 12 Este 29 Sudeste 0 -- -- 91
2020-04-01 04:00:00 15.1 18 Este 32 Este 0 -- -- 92
2020-04-01 03:00:00 15 19 Este 37 Este 0 -- -- 92
2020-04-01 02:00:00 15 20 Este 39 Este 0 -- -- 93
2020-04-01 01:00:00 14.8 20 Este 33 Este 0 -- -- 94
2020-04-01 00:00:00 14.9 22 Este 39 Este 0 -- -- 93
2020-03-31 23:00:00 15.1 23 Este 36 Este 0 -- -- 93
2020-03-31 22:00:00 15 20 Este 44 Nordeste 0 -- -- 92
2020-03-31 21:00:00 15 23 Este 35 Este 0 -- -- 92
2020-03-31 20:00:00 15.8 18 Este 33 Este 0 -- -- 89
2020-03-31 19:00:00 16.8 18 Este 33 Nordeste 0 -- -- 86
2020-03-31 18:00:00 17.4 19 Este 33 Este 0 -- -- 84
2020-03-31 17:00:00 17.4 21 Este 37 Este 0 -- -- 84
2020-03-31 16:00:00 16.1 15 Este 34 Este 0.8 -- -- 90
2020-03-31 15:00:00 17 19 Este 48 Este 0 -- -- 84
2020-03-31 14:00:00 17.5 26 Este 48 Este 0 -- -- 78
2020-03-31 13:00:00 17.3 29 Este 46 Este 0 -- -- 78
2020-03-31 12:00:00 16.2 28 Este 49 Este 0 -- -- 83
2020-03-31 11:00:00 16 30 Este 48 Este 0 -- -- 84
2020-03-31 10:00:00 15.5 26 Este 46 Este 0 -- -- 85
2020-03-31 09:00:00 15.2 26 Este 46 Este 0 -- -- 85
2020-03-31 08:00:00 14.4 18 Este 36 Este 0 -- -- 89
2020-03-31 07:00:00 14 15 Este 29 Este 0 -- -- 90
2020-03-31 06:00:00 14.1 11 Este 27 Este 0 -- -- 89
2020-03-31 05:00:00 14.1 10 Nordeste 18 Nordeste 0 -- -- 91
2020-03-31 04:00:00 14 8 Nordeste 17 Este 0 -- -- 91
2020-03-31 03:00:00 13.6 7 Este 12 Este 0 -- -- 92
2020-03-31 02:00:00 13.5 5 Este 13 Este 0 -- -- 91
2020-03-31 01:00:00 12.1 6 Este 10 Este 0 -- -- 96
2020-03-31 00:00:00 11.4 0 Calma 4 Este 0 -- -- 94
2020-03-30 23:00:00 11.5 2 Este 5 Nordeste 0 -- -- 93
2020-03-30 22:00:00 12.2 4 Este 9 Sudeste 0 -- -- 92
2020-03-30 21:00:00 13.3 6 Sudeste 10 Sudeste 0 -- -- 90
2020-03-30 20:00:00 15.1 6 Sur 13 Sur 0 -- -- 84
2020-03-30 19:00:00 16.7 8 Sur 18 Sudoeste 0 -- -- 77
2020-03-30 18:00:00 17.7 10 Sudoeste 23 Sudoeste 0 -- -- 73
2020-03-30 17:00:00 18 14 Sudoeste 27 Sudoeste 0 -- -- 72
2020-03-30 16:00:00 17.6 16 Sudoeste 29 Sudoeste 0 -- -- 76
2020-03-30 15:00:00 18.4 17 Sudoeste 31 Sudoeste 0 -- -- 73
2020-03-30 14:00:00 17.6 19 Sur 32 Sudoeste 0 -- -- 76
2020-03-30 13:00:00 18 16 Sudoeste 30 Sur 0 -- -- 74
2020-03-30 12:00:00 17.3 15 Sudoeste 25 Sur 0 -- -- 78
2020-03-30 11:00:00 16.4 11 Sur 22 Sur 0 -- -- 82
2020-03-30 10:00:00 10.9 0 Calma 5 Sudeste 0 -- -- 97
2020-03-30 09:00:00 8.1 0 Calma 2 Norte 0 -- -- 97
2020-03-30 08:00:00 6.3 2 Sudeste 3 Sudeste 0 -- -- 97
2020-03-30 07:00:00 6.6 0 Calma 3 Norte 0 -- -- 97
2020-03-30 06:00:00 7.2 0 Calma 2 Norte 0 -- -- 96
2020-03-30 05:00:00 8.3 0 Calma 3 Sudeste 0 -- -- 95
2020-03-30 04:00:00 8.9 0 Calma 4 Norte 0 -- -- 95
2020-03-30 03:00:00 9.4 0 Calma 5 Norte 0 -- -- 93
2020-03-30 02:00:00 12.2 4 Norte 18 Sudoeste 0 -- -- 88
2020-03-30 01:00:00 14.2 6 Sudoeste 18 Sudoeste 0 -- -- 85
2020-03-30 00:00:00 14.3 9 Sudoeste 18 Oeste 0 -- -- 87
2020-03-29 23:00:00 14 5 Sudoeste 14 Sudoeste 0 -- -- 87
2020-03-29 22:00:00 14.4 6 Sudoeste 17 Sudoeste 0 -- -- 87
2020-03-29 21:00:00 14.3 8 Sudoeste 20 Sudoeste 0 -- -- 84
2020-03-29 20:00:00 15.2 9 Sudoeste 24 Oeste 0 -- -- 81
2020-03-29 19:00:00 16.6 12 Sudoeste 25 Oeste 0 -- -- 77
2020-03-29 18:00:00 17 18 Sudoeste 28 Oeste 0 -- -- 73
2020-03-29 17:00:00 17 23 Oeste 35 Oeste 0 -- -- 77
2020-03-29 16:00:00 17.8 26 Oeste 37 Oeste 0 -- -- 71
2020-03-29 15:00:00 18.1 23 Oeste 33 Oeste 0 -- -- 71
2020-03-29 14:00:00 18 24 Oeste 33 Oeste 0 -- -- 69
2020-03-29 13:00:00 17.4 22 Oeste 30 Oeste 0 -- -- 71
2020-03-29 12:00:00 16.5 8 Oeste 13 Sudoeste 0 -- -- 79
2020-03-29 11:00:00 14 0 Calma 2 Sudoeste 0 -- -- 94
2020-03-29 10:00:00 10.2 0 Calma 7 Norte 0 -- -- 99
2020-03-29 09:00:00 8.2 0 Calma -- -- 0 -- -- 99
2020-03-29 08:00:00 5.5 0 Calma -- -- 0 -- -- 99
2020-03-29 07:00:00 6.1 0 Calma 0 Calma 0 -- -- 98
2020-03-29 06:00:00 6.6 0 Calma 2 Sudeste 0 -- -- 98
2020-03-29 05:00:00 8.1 0 Calma 4 Sudeste 0 -- -- 98
2020-03-29 03:00:00 8.6 0 Calma 4 Norte 0 -- -- 98
2020-03-29 01:00:00 9 0 Calma 5 Sudeste 0 -- -- 98
2020-03-29 00:00:00 8.3 3 Sudeste 4 Sudeste 0 -- -- 97
2020-03-28 23:00:00 8.4 2 Sudeste 6 Sudeste 0 -- -- 96
2020-03-28 22:00:00 9.7 0 Calma 8 Este 0 -- -- 94
2020-03-28 21:00:00 11.3 2 Sudeste 4 Nordeste 0 -- -- 93
2020-03-28 20:00:00 12.4 2 Nordeste 8 Nordeste 0 -- -- 91
2020-03-28 19:00:00 13 6 Nordeste 10 Nordeste 0 -- -- 89
2020-03-28 18:00:00 13.9 7 Nordeste 12 Nordeste 0 -- -- 84
2020-03-28 17:00:00 12.5 6 Nordeste 15 Norte 0.8 -- -- 91
2020-03-28 16:00:00 12.2 6 Sudeste 10 Sudeste 2 -- -- 89
2020-03-28 15:00:00 11.9 4 Sur 9 Norte 6.6 -- -- 89
2020-03-28 14:00:00 12.5 6 Nordeste 15 Nordeste 0.8 -- -- 84
2020-03-28 13:00:00 14.5 11 Sur 19 Norte 0 -- -- 78
2020-03-28 12:00:00 14.4 12 Norte 22 Norte 0 -- -- 74
2020-03-28 11:00:00 13.2 12 Norte 19 Norte 0 -- -- 79
2020-03-28 10:00:00 11.6 3 Norte 11 Norte 0 -- -- 89
2020-03-28 09:00:00 8.3 0 Calma 3 Nordeste 0 -- -- 97
2020-03-28 08:00:00 5.5 0 Calma 3 Sur 0 -- -- 98
2020-03-28 07:00:00 3.3 3 Sudeste 5 Sudeste 0 -- -- 96
2020-03-28 06:00:00 4.1 0 Calma 4 Noroeste 0 -- -- 94
2020-03-28 05:00:00 6.5 3 Norte 7 Nordeste 0 -- -- 95
2020-03-28 04:00:00 4.5 3 Norte 4 Norte 0 -- -- 94
2020-03-28 03:00:00 5.1 0 Calma 5 Norte 0 -- -- 93
2020-03-28 02:00:00 5.7 2 Nordeste 6 Norte 0 -- -- 91
2020-03-28 01:00:00 8 4 Nordeste 8 Norte 0 -- -- 92
2020-03-28 00:00:00 8.9 5 Norte 8 Norte 0 -- -- 91
2020-03-27 23:00:00 9.3 4 Nordeste 8 Norte 0 -- -- 92
2020-03-27 22:00:00 8.3 6 Norte 9 Nordeste 0 -- -- 89
2020-03-27 21:00:00 8.8 4 Nordeste 9 Nordeste 0 -- -- 85
2020-03-27 20:00:00 10.4 6 Nordeste 18 Norte 0 -- -- 72
2020-03-27 19:00:00 12.4 7 Norte 13 Sudoeste 0 -- -- 69
2020-03-27 18:00:00 14.1 7 Sudoeste 17 Sudoeste 0 -- -- 54
2020-03-27 17:00:00 14.6 11 Oeste 21 Oeste 0 -- -- 53
2020-03-27 16:00:00 15.5 13 Sudoeste 25 Sudoeste 0 -- -- 52
2020-03-27 15:00:00 15.9 12 Sudoeste 21 Oeste 0 -- -- 53
2020-03-27 14:00:00 15.4 9 Nordeste 20 Norte 0 -- -- 41
2020-03-27 13:00:00 15.1 11 Nordeste 23 Norte 0 -- -- 49
2020-03-27 12:00:00 14 12 Nordeste 25 Este 0 -- -- 55
2020-03-27 11:00:00 13.1 15 Nordeste 23 Nordeste 0 -- -- 58
2020-03-27 10:00:00 11.9 13 Norte 18 Norte 0 -- -- 67
2020-03-27 09:00:00 9.5 9 Norte 13 Norte 0 -- -- 82
2020-03-27 08:00:00 5.7 5 Norte 10 Norte 0 -- -- 97
2020-03-27 07:00:00 3.3 4 Noroeste 9 Norte 0 -- -- 97
2020-03-27 06:00:00 3.5 5 Norte 9 Norte 0 -- -- 96
2020-03-27 05:00:00 3.9 7 Norte 10 Nordeste 0 -- -- 95
2020-03-27 04:00:00 4.8 6 Nordeste 11 Nordeste 0 -- -- 96
2020-03-27 03:00:00 5.2 8 Norte 15 Norte 0 -- -- 97
2020-03-27 02:00:00 6 8 Norte 14 Norte 0 -- -- 97
2020-03-27 01:00:00 7.7 7 Norte 17 Nordeste 0 -- -- 96
2020-03-27 00:00:00 8 9 Norte 15 Nordeste 0 -- -- 97
2020-03-26 23:00:00 7.8 8 Nordeste 16 Norte 0.8 -- -- 96
2020-03-26 22:00:00 7.8 9 Nordeste 22 Norte 0.2 -- -- 94
2020-03-26 21:00:00 7.9 13 Norte 20 Norte 0.4 -- -- 93
2020-03-26 20:00:00 7.7 8 Norte 18 Norte 0 -- -- 93
2020-03-26 19:00:00 8.2 10 Norte 14 Norte 0.2 -- -- 93
2020-03-26 18:00:00 8.3 12 Nordeste 26 Nordeste 0.2 -- -- 91
2020-03-26 17:00:00 8.3 14 Norte 29 Norte 0 -- -- 91
2020-03-26 16:00:00 8.8 18 Nordeste 33 Norte 0.2 -- -- 90
2020-03-26 15:00:00 9.1 13 Nordeste 26 Nordeste 0.4 -- -- 92
2020-03-26 14:00:00 9.3 14 Nordeste 25 Norte 0 -- -- 88
2020-03-26 13:00:00 10.7 14 Norte 18 Norte 0 -- -- 83
2020-03-26 12:00:00 9.9 13 Este 28 Este 1.8 -- -- 91
2020-03-26 11:00:00 7.9 12 Noroeste 31 Noroeste 4.8 -- -- 91
2020-03-26 10:00:00 10.3 4 Sudoeste 10 Sur 0.2 -- -- 85
2020-03-26 09:00:00 9.5 3 Nordeste 5 Noroeste 0.2 -- -- 91
2020-03-26 08:00:00 8.4 0 Calma 9 Noroeste 0 -- -- 91
2020-03-26 07:00:00 6.8 4 Nordeste 10 Sudoeste 0 -- -- 90
2020-03-26 06:00:00 8.8 7 Sudoeste 14 Sudoeste 0 -- -- 92
2020-03-26 05:00:00 6 7 Sudeste 12 Sudeste 0 -- -- 93
2020-03-26 04:00:00 7.6 5 Noroeste 24 Oeste 0.2 -- -- 90
2020-03-26 03:00:00 5.1 0 Calma 6 Norte 0 -- -- 89
2020-03-26 02:00:00 4.8 0 Calma 4 Sudeste 0 -- -- 87
2020-03-26 01:00:00 5 2 Norte 4 Nordeste 0 -- -- 88
2020-03-26 00:00:00 3.4 0 Calma 2 Oeste 0 -- -- 90
2020-03-25 23:00:00 3.2 0 Calma 4 Sudeste 0 -- -- 86
2020-03-25 22:00:00 4 0 Calma 3 Norte 0 -- -- 79
2020-03-25 21:00:00 6.5 0 Calma 4 Sudeste 0 -- -- 74
2020-03-25 20:00:00 9.3 0 Calma 8 Nordeste 0 -- -- 68
2020-03-25 19:00:00 10.8 6 Este 18 Nordeste 0 -- -- 54
2020-03-25 18:00:00 12.7 10 Nordeste 24 Nordeste 0 -- -- 47
2020-03-25 17:00:00 13.3 16 Nordeste 33 Norte 0 -- -- 45
2020-03-25 16:00:00 14.4 17 Norte 31 Norte 0 -- -- 44
2020-03-25 15:00:00 13.5 13 Nordeste 27 Este 0 -- -- 51
2020-03-25 14:00:00 13.5 17 Este 28 Este 0 -- -- 55
2020-03-25 13:00:00 14.4 11 Nordeste 25 Este 0 -- -- 40
2020-03-25 12:00:00 12.8 13 Norte 38 Norte 0 -- -- 44
2020-03-25 11:00:00 12.9 14 Nordeste 28 Norte 0 -- -- 57
2020-03-25 10:00:00 11 21 Norte 32 Nordeste 0 -- -- 71
2020-03-25 09:00:00 8.8 8 Nordeste 17 Nordeste 0 -- -- 81
2020-03-25 08:00:00 7.5 9 Este 26 Este 0.4 -- -- 86
2020-03-25 07:00:00 5.3 7 Nordeste 13 Nordeste 0 -- -- 83
2020-03-25 06:00:00 5.8 9 Nordeste 14 Nordeste 0 -- -- 83
2020-03-25 05:00:00 5.8 5 Nordeste 11 Norte 0 -- -- 86
2020-03-25 04:00:00 5.6 8 Nordeste 10 Nordeste 0 -- -- 90
2020-03-25 03:00:00 6.2 7 Norte 10 Nordeste 0 -- -- 90
2020-03-25 02:00:00 7.8 9 Norte 21 Nordeste 0 -- -- 85
2020-03-25 01:00:00 9 14 Nordeste 37 Norte 0.2 -- -- 82
2020-03-25 00:00:00 9.6 8 Norte 22 Nordeste 0 -- -- 73
2020-03-24 23:00:00 11.4 13 Nordeste 28 Nordeste 0 -- -- 62
2020-03-24 22:00:00 11.6 13 Nordeste 36 Este 0 -- -- 63
2020-03-24 21:00:00 12.2 22 Este 37 Este 0 -- -- 60
2020-03-24 20:00:00 12.1 19 Este 39 Este 0 -- -- 60
2020-03-24 19:00:00 12.7 25 Este 45 Este 0 -- -- 61
2020-03-24 18:00:00 13.5 28 Nordeste 46 Nordeste 0 -- -- 59
2020-03-24 17:00:00 14.2 29 Nordeste 53 Este 0 -- -- 61
2020-03-24 16:00:00 15.1 28 Nordeste 53 Este 0 -- -- 63
2020-03-24 15:00:00 15 27 Nordeste 48 Nordeste 0 -- -- 65
2020-03-24 14:00:00 14.9 23 Este 50 Este 0 -- -- 69
2020-03-24 13:00:00 15.3 28 Este 49 Este 0 -- -- 69
2020-03-24 12:00:00 14.9 28 Este 48 Este 0 -- -- 74
2020-03-24 11:00:00 15.2 27 Nordeste 43 Este 0 -- -- 79
2020-03-24 10:00:00 14.5 15 Nordeste 27 Nordeste 0 -- -- 88
2020-03-24 09:00:00 13.5 10 Nordeste 22 Nordeste 0 -- -- 91
2020-03-24 08:00:00 13.7 12 Nordeste 24 Nordeste 0 -- -- 88
2020-03-24 07:00:00 12.8 11 Este 29 Este 0 -- -- 89
2020-03-24 06:00:00 13.7 11 Este 29 Nordeste 0.2 -- -- 90
2020-03-24 05:00:00 14 14 Nordeste 27 Nordeste 0 -- -- 84
2020-03-24 04:00:00 14.2 13 Este 26 Este 0 -- -- 85
2020-03-24 03:00:00 14.2 14 Este 27 Este 0 -- -- 85
2020-03-24 02:00:00 14.2 16 Este 33 Este 0 -- -- 84
2020-03-24 01:00:00 14.6 19 Este 32 Este 0 -- -- 86
2020-03-24 00:00:00 13.8 8 Nordeste 22 Este 0 -- -- 85
2020-03-23 23:00:00 13.7 10 Nordeste 20 Nordeste 0 -- -- 85
2020-03-23 22:00:00 14.1 9 Nordeste 22 Nordeste 0 -- -- 82
2020-03-23 21:00:00 14.3 10 Nordeste 22 Este 0 -- -- 84
2020-03-23 20:00:00 14.4 12 Este 22 Este 0 -- -- 84
2020-03-23 19:00:00 15.3 13 Este 27 Este 0 -- -- 77
2020-03-23 18:00:00 16.8 17 Este 30 Este 0 -- -- 72
2020-03-23 17:00:00 17.9 17 Este 36 Este 0 -- -- 69
2020-03-23 16:00:00 18.7 23 Este 33 Este 0 -- -- 65
2020-03-23 15:00:00 19.1 20 Este 34 Este 0 -- -- 63
2020-03-23 14:00:00 19.3 19 Este 33 Este 0 -- -- 63
2020-03-23 13:00:00 18.7 18 Este 32 Sudeste 0 -- -- 64
2020-03-23 12:00:00 19 18 Sudeste 34 Sudeste 0 -- -- 64
2020-03-23 11:00:00 18.3 18 Este 34 Este 0 -- -- 67
2020-03-23 10:00:00 17.2 17 Este 26 Sudeste 0 -- -- 75
2020-03-23 09:00:00 14 11 Este 20 Este 0 -- -- 99
2020-03-23 08:00:00 9.7 0 Calma 3 Sudeste 0 -- -- 97
2020-03-23 07:00:00 6.2 0 Calma 3 Norte 0 -- -- 98
2020-03-23 06:00:00 6.2 0 Calma 3 Noroeste 0 -- -- 97
2020-03-23 05:00:00 6.4 0 Calma 2 Sudeste 0 -- -- 96
2020-03-23 04:00:00 7.2 0 Calma 2 Este 0 -- -- 96
2020-03-23 03:00:00 7.3 0 Calma 3 Oeste 0 -- -- 96
2020-03-23 02:00:00 8.3 0 Calma 2 Norte 0 -- -- 96
2020-03-23 01:00:00 9.2 0 Calma 4 Norte 0 -- -- 95
2020-03-23 00:00:00 10 2 Oeste 3 Norte 0 -- -- 95
2020-03-22 23:00:00 9.8 0 Calma 4 Nordeste 0 -- -- 94
2020-03-22 22:00:00 10.8 5 Sudeste 6 Sudeste 0 -- -- 94
2020-03-22 21:00:00 10.9 4 Sudeste 7 Este 0 -- -- 91
2020-03-22 20:00:00 12.5 5 Sudeste 10 Sur 0 -- -- 89
2020-03-22 19:00:00 15.2 6 Sur 22 Sur 0 -- -- 83
2020-03-22 18:00:00 17.6 13 Sur 20 Sur 0 -- -- 75
2020-03-22 17:00:00 18.3 8 Oeste 20 Sudoeste 0 -- -- 73
2020-03-22 16:00:00 17.8 12 Oeste 22 Sudoeste 0 -- -- 75
2020-03-22 15:00:00 17 13 Sudoeste 22 Sudoeste 0 -- -- 78
2020-03-22 14:00:00 17.3 10 Sur 21 Sudoeste 1 -- -- 81
2020-03-22 13:00:00 17.7 12 Sudoeste 19 Oeste 0 -- -- 78
2020-03-22 12:00:00 17.1 13 Sudoeste 28 Sudoeste 0 -- -- 79
2020-03-22 11:00:00 17.6 17 Sudoeste 25 Sur 0 -- -- 80
2020-03-22 10:00:00 16 4 Norte 8 Norte 0 -- -- 87
2020-03-22 09:00:00 14.1 3 Noroeste 8 Norte 0 -- -- 93
2020-03-22 08:00:00 12.7 4 Norte 9 Nordeste 0 -- -- 95
2020-03-22 07:00:00 12 4 Nordeste 8 Nordeste 0 -- -- 96
2020-03-22 06:00:00 11.9 0 Calma 6 Norte 0 -- -- 96
2020-03-22 05:00:00 11.2 3 Nordeste 5 Nordeste 0 -- -- 97
2020-03-22 04:00:00 9.2 0 Calma 4 Norte 0 -- -- 95
2020-03-22 03:00:00 9.6 0 Calma 4 Oeste 0 -- -- 96
2020-03-22 02:00:00 10 3 Oeste 4 Oeste 0 -- -- 94
2020-03-22 01:00:00 10.1 3 Este 5 Norte 0 -- -- 92
2020-03-22 00:00:00 12.5 5 Norte 8 Noroeste 0 -- -- 91
2020-03-21 23:00:00 13.2 3 Norte 4 Norte 0 -- -- 90
2020-03-21 22:00:00 13.6 3 Norte 10 Noroeste 0 -- -- 89
2020-03-21 21:00:00 14.1 3 Norte 6 Nordeste 0 -- -- 86
2020-03-21 20:00:00 14.9 3 Nordeste 15 Nordeste 0 -- -- 84
2020-03-21 19:00:00 15.8 10 Este 18 Nordeste 0 -- -- 78
2020-03-21 18:00:00 16.5 13 Este 25 Este 0 -- -- 75
2020-03-21 17:00:00 17.7 15 Este 28 Este 0 -- -- 69
2020-03-21 16:00:00 17.7 16 Este 30 Este 0 -- -- 71
2020-03-21 15:00:00 17.5 17 Este 31 Este 0 -- -- 71
2020-03-21 14:00:00 17.5 17 Este 36 Sudeste 0 -- -- 70
2020-03-21 13:00:00 18 21 Este 35 Nordeste 0 -- -- 66
2020-03-21 12:00:00 18.4 19 Este 32 Este 0 -- -- 66
2020-03-21 11:00:00 17.8 18 Este 29 Este 0 -- -- 69
2020-03-21 10:00:00 17.2 16 Nordeste 28 Nordeste 0 -- -- 74
2020-03-21 09:00:00 15 13 Nordeste 21 Nordeste 0 -- -- 86
2020-03-21 08:00:00 12 5 Nordeste 10 Nordeste 0 -- -- 93
2020-03-21 07:00:00 11.3 6 Nordeste 10 Norte 0 -- -- 92
2020-03-21 06:00:00 11.5 5 Nordeste 9 Nordeste 0 -- -- 92
2020-03-21 05:00:00 11.1 3 Norte 6 Norte 0 -- -- 93
2020-03-21 04:00:00 11.2 5 Norte 9 Norte 0 -- -- 92
2020-03-21 03:00:00 11.8 6 Nordeste 12 Nordeste 0 -- -- 91
2020-03-21 02:00:00 12.1 6 Nordeste 11 Norte 0 -- -- 90
2020-03-21 01:00:00 11.9 5 Norte 11 Nordeste 0 -- -- 90
2020-03-21 00:00:00 13.2 6 Nordeste 22 Este 0 -- -- 84
2020-03-20 23:00:00 13.6 10 Este 23 Este 0 -- -- 84
2020-03-20 22:00:00 13.9 15 Nordeste 30 Este 0 -- -- 82
2020-03-20 21:00:00 13.7 8 Nordeste 20 Nordeste 0 -- -- 83
2020-03-20 20:00:00 13.9 8 Nordeste 17 Nordeste 0 -- -- 81
2020-03-20 19:00:00 15.2 11 Nordeste 25 Nordeste 0 -- -- 76
2020-03-20 18:00:00 15.9 18 Nordeste 28 Nordeste 0 -- -- 75
2020-03-20 17:00:00 16.7 21 Este 33 Nordeste 0 -- -- 71
2020-03-20 16:00:00 17.2 22 Este 36 Este 0 -- -- 67
2020-03-20 15:00:00 17.9 19 Nordeste 35 Este 0 -- -- 66
2020-03-20 14:00:00 17.9 21 Este 35 Este 0 -- -- 64
2020-03-20 13:00:00 17.3 23 Este 39 Este 0 -- -- 65
2020-03-20 12:00:00 17.2 25 Este 40 Este 0 -- -- 66
2020-03-20 11:00:00 16.9 23 Este 39 Este 0 -- -- 66
2020-03-20 10:00:00 16.3 25 Este 37 Este 0 -- -- 68
2020-03-20 09:00:00 15.1 19 Este 31 Este 0 -- -- 75
2020-03-20 08:00:00 10.5 7 Norte 13 Nordeste 0 -- -- 94
2020-03-20 07:00:00 9.6 8 Nordeste 14 Nordeste 0 -- -- 94
2020-03-20 06:00:00 9.2 10 Nordeste 15 Nordeste 0 -- -- 95
2020-03-20 05:00:00 9.3 8 Nordeste 16 Nordeste 0 -- -- 94
2020-03-20 04:00:00 9.4 9 Nordeste 15 Nordeste 0 -- -- 95
2020-03-20 03:00:00 9.9 9 Nordeste 15 Nordeste 0 -- -- 93
2020-03-20 02:00:00 10.2 9 Nordeste 13 Nordeste 0 -- -- 94
2020-03-20 01:00:00 10.2 7 Nordeste 12 Nordeste 0 -- -- 94
2020-03-20 00:00:00 10.1 6 Norte 9 Nordeste 0 -- -- 92
2020-03-19 23:00:00 11.6 6 Nordeste 11 Nordeste 0 -- -- 90
2020-03-19 22:00:00 11.8 5 Nordeste 15 Nordeste 0 -- -- 88
2020-03-19 21:00:00 12.3 6 Nordeste 10 Este 0 -- -- 87
2020-03-19 20:00:00 13.2 7 Este 19 Este 0 -- -- 84
2020-03-19 19:00:00 14.3 14 Este 27 Este 0 -- -- 78
2020-03-19 18:00:00 15.7 14 Este 28 Sudeste 0 -- -- 73
2020-03-19 17:00:00 16.9 21 Este 35 Este 0 -- -- 66
2020-03-19 16:00:00 18 19 Este 33 Este 0 -- -- 62
2020-03-19 15:00:00 18.4 19 Este 32 Este 0 -- -- 60
2020-03-19 14:00:00 17.8 19 Este 32 Este 0 -- -- 61
2020-03-19 13:00:00 17.3 19 Este 29 Sudeste 0 -- -- 63
2020-03-19 12:00:00 18.4 20 Este 30 Sudeste 0 -- -- 63
2020-03-19 11:00:00 16.7 14 Nordeste 30 Este 0 -- -- 74
2020-03-19 10:00:00 14.8 8 Nordeste 15 Nordeste 0 -- -- 91
2020-03-19 09:00:00 11.8 7 Norte 11 Norte 0 -- -- 96
2020-03-19 08:00:00 10.4 8 Norte 12 Nordeste 0 -- -- 97
2020-03-19 07:00:00 9.5 5 Norte 12 Nordeste 0 -- -- 97
2020-03-19 06:00:00 10 9 Nordeste 12 Norte 0 -- -- 97
2020-03-19 05:00:00 10.5 8 Nordeste 10 Nordeste 0 -- -- 96
2020-03-19 04:00:00 10.9 7 Nordeste 12 Norte 0 -- -- 96
2020-03-19 03:00:00 11.2 7 Nordeste 14 Norte 0 -- -- 95
2020-03-19 02:00:00 11.6 8 Nordeste 13 Nordeste 0 -- -- 95
2020-03-19 01:00:00 11.2 6 Norte 8 Nordeste 0 -- -- 94
2020-03-19 00:00:00 11.8 5 Nordeste 9 Nordeste 0 -- -- 93
2020-03-18 23:00:00 12.5 5 Nordeste 8 Nordeste 0 -- -- 92
2020-03-18 22:00:00 13.2 4 Nordeste 11 Nordeste 0 -- -- 90
2020-03-18 21:00:00 14.2 4 Nordeste 10 Nordeste 0 -- -- 87
2020-03-18 20:00:00 14.6 6 Nordeste 15 Este 0 -- -- 86
2020-03-18 19:00:00 15.2 9 Este 23 Este 0 -- -- 81
2020-03-18 18:00:00 15.9 14 Nordeste 24 Este 0 -- -- 77
2020-03-18 17:00:00 16.6 16 Este 28 Este 0 -- -- 73
2020-03-18 16:00:00 17.7 19 Este 29 Este 0 -- -- 70
2020-03-18 15:00:00 18.1 19 Este 32 Nordeste 0 -- -- 70
2020-03-18 14:00:00 17.9 19 Este 33 Este 0 -- -- 68
2020-03-18 13:00:00 18.6 19 Este 32 Este 0 -- -- 68
2020-03-18 12:00:00 17.1 20 Este 32 Nordeste 0 -- -- 76
2020-03-18 11:00:00 16.6 18 Este 31 Este 0 -- -- 79
2020-03-18 10:00:00 16.2 16 Nordeste 31 Nordeste 0 -- -- 80
2020-03-18 09:00:00 14.1 14 Norte 18 Nordeste 0 -- -- 89
2020-03-18 08:00:00 12.6 8 Nordeste 17 Nordeste 0 -- -- 93
2020-03-18 07:00:00 11.9 10 Nordeste 17 Norte 0 -- -- 93
2020-03-18 06:00:00 12 8 Nordeste 16 Este 0 -- -- 91
2020-03-18 05:00:00 12.2 10 Nordeste 15 Nordeste 0 -- -- 91
2020-03-18 04:00:00 12.8 9 Nordeste 15 Nordeste 0 -- -- 88
2020-03-18 03:00:00 12.6 8 Norte 15 Nordeste 0 -- -- 87
2020-03-18 02:00:00 13 8 Nordeste 15 Nordeste 0 -- -- 85
2020-03-18 01:00:00 14.1 8 Nordeste 21 Nordeste 0 -- -- 80
2020-03-18 00:00:00 15.1 13 Nordeste 30 Nordeste 0 -- -- 76
2020-03-17 23:00:00 15.3 19 Nordeste 35 Nordeste 0 -- -- 80
2020-03-17 22:00:00 15.3 20 Nordeste 37 Nordeste 0 -- -- 81
2020-03-17 21:00:00 15.3 21 Nordeste 35 Este 0 -- -- 81
2020-03-17 20:00:00 15.3 13 Nordeste 40 Nordeste 0 -- -- 83
2020-03-17 19:00:00 15.4 24 Este 49 Este 0 -- -- 84
2020-03-17 18:00:00 15.9 24 Este 46 Nordeste 0 -- -- 81
2020-03-17 17:00:00 16.6 27 Este 51 Nordeste 0 -- -- 78
2020-03-17 16:00:00 17 28 Este 50 Este 0 -- -- 77
2020-03-17 15:00:00 18 25 Este 51 Este 0 -- -- 73
2020-03-17 14:00:00 18 30 Este 48 Este 0 -- -- 76
2020-03-17 13:00:00 17.5 25 Este 46 Este 0 -- -- 79
2020-03-17 12:00:00 17.2 24 Este 45 Este 0 -- -- 81
2020-03-17 11:00:00 16.8 22 Este 40 Este 0 -- -- 85
2020-03-17 10:00:00 16.6 20 Este 38 Este 0 -- -- 87
2020-03-17 09:00:00 16.1 20 Este 33 Nordeste 0 -- -- 88
2020-03-17 08:00:00 15.7 16 Este 29 Nordeste 0 -- -- 91
2020-03-17 07:00:00 15.6 14 Este 31 Nordeste 0 -- -- 92
2020-03-17 06:00:00 15.5 12 Nordeste 21 Norte 0 -- -- 93
2020-03-17 05:00:00 15.4 9 Nordeste 26 Nordeste 0 -- -- 94
2020-03-17 04:00:00 15.4 11 Nordeste 20 Nordeste 0.2 -- -- 94
2020-03-17 03:00:00 15.7 4 Este 17 Nordeste 0 -- -- 91
2020-03-17 02:00:00 15.7 14 Nordeste 24 Este 0 -- -- 92
2020-03-17 01:00:00 15.7 6 Nordeste 22 Este 0 -- -- 92
2020-03-17 00:00:00 15.8 9 Este 22 Este 0 -- -- 91
2020-03-16 23:00:00 15.7 13 Este 26 Este 0 -- -- 91
2020-03-16 22:00:00 15.7 14 Este 27 Este 0 -- -- 91
2020-03-16 21:00:00 15.8 13 Este 28 Este 0 -- -- 90
2020-03-16 20:00:00 16 17 Este 27 Este 0 -- -- 90
2020-03-16 19:00:00 16.2 17 Este 28 Este 0 -- -- 89
2020-03-16 18:00:00 16.6 18 Este 36 Este 0 -- -- 87
2020-03-16 17:00:00 17.1 20 Este 36 Este 0 -- -- 85
2020-03-16 16:00:00 18 23 Sudeste 35 Este 0 -- -- 82
2020-03-16 15:00:00 17.3 26 Sudeste 43 Este 0 -- -- 85
2020-03-16 14:00:00 17.8 28 Sudeste 49 Este 0 -- -- 83
2020-03-16 13:00:00 17 30 Este 46 Este 0 -- -- 86
2020-03-16 12:00:00 16.5 26 Sudeste 42 Sudeste 0 -- -- 89
2020-03-16 11:00:00 16.2 29 Este 42 Este 0 -- -- 91
2020-03-16 10:00:00 15.6 17 Sudeste 30 Sudeste 0 -- -- 93
2020-03-16 09:00:00 15.4 20 Este 31 Este 0 -- -- 94
2020-03-16 08:00:00 14.8 23 Sudeste 45 Este 0.6 -- -- 95
2020-03-16 07:00:00 14.3 17 Este 26 Este 0.4 -- -- 93
2020-03-16 06:00:00 14.1 6 Este 17 Este 0 -- -- 91
2020-03-16 05:00:00 13.8 7 Este 13 Este 0 -- -- 94
2020-03-16 04:00:00 10.9 8 Nordeste 11 Nordeste 0 -- -- 96
2020-03-16 03:00:00 10.6 3 Norte 10 Nordeste 0 -- -- 96
2020-03-16 02:00:00 9.8 7 Nordeste 13 Nordeste 0 -- -- 96
2020-03-16 01:00:00 9.6 6 Norte 16 Norte 0 -- -- 95
2020-03-16 00:00:00 9.6 9 Nordeste 12 Norte 0 -- -- 95
2020-03-15 23:00:00 10 4 Nordeste 10 Norte 0 -- -- 94
2020-03-15 22:00:00 10.7 4 Nordeste 8 Nordeste 0 -- -- 90
2020-03-15 21:00:00 12.1 3 Nordeste 10 Nordeste 0 -- -- 88
2020-03-15 20:00:00 13.4 7 Este 24 Este 0 -- -- 86
2020-03-15 19:00:00 14.4 17 Este 30 Este 0 -- -- 78
2020-03-15 18:00:00 16.3 16 Este 26 Este 0 -- -- 68
2020-03-15 17:00:00 17.5 19 Este 32 Sudeste 0 -- -- 60
2020-03-15 16:00:00 18.2 15 Este 28 Sudeste 0 -- -- 62
2020-03-15 15:00:00 17.9 16 Sudeste 27 Sur 0 -- -- 67
2020-03-15 14:00:00 17.7 18 Este 28 Sudeste 0 -- -- 69
2020-03-15 13:00:00 17.9 17 Sudeste 34 Sudeste 0 -- -- 68
2020-03-15 12:00:00 16.5 16 Este 37 Sudeste 0 -- -- 73
2020-03-15 11:00:00 17.2 14 Este 24 Este 0 -- -- 72
2020-03-15 10:00:00 16.4 14 Sudeste 21 Sudeste 0 -- -- 76
2020-03-15 09:00:00 12.1 2 Norte 5 Norte 0 -- -- 93
2020-03-15 08:00:00 6.5 0 Calma 2 Este 0 -- -- 97
2020-03-15 07:00:00 3.9 0 Calma 3 Norte 0 -- -- 95
2020-03-15 06:00:00 4.2 0 Calma 3 Norte 0 -- -- 95
2020-03-15 05:00:00 4.6 0 Calma 3 Sudeste 0 -- -- 94
2020-03-15 04:00:00 5.1 0 Calma 3 Norte 0 -- -- 94
2020-03-15 03:00:00 6 0 Calma 3 Sudeste 0 -- -- 93
2020-03-15 02:00:00 6.9 0 Calma 3 Norte 0 -- -- 93
2020-03-15 01:00:00 7.6 0 Calma 4 Norte 0 -- -- 93
2020-03-15 00:00:00 7.3 0 Calma 4 Sudeste 0 -- -- 92
2020-03-14 23:00:00 8.2 0 Calma 4 Sudeste 0 -- -- 92
2020-03-14 22:00:00 8.5 3 Sudeste 4 Sudeste 0 -- -- 89
2020-03-14 21:00:00 10.3 0 Calma 3 Sudeste 0 -- -- 85
2020-03-14 20:00:00 12.6 2 Sur 8 Sudeste 0 -- -- 77
2020-03-14 19:00:00 14.4 7 Sudeste 19 Sudeste 0 -- -- 75
2020-03-14 18:00:00 16.3 15 Este 21 Sudeste 0 -- -- 68
2020-03-14 17:00:00 18.2 13 Sudeste 21 Sudeste 0 -- -- 58
2020-03-14 16:00:00 19.7 9 Sur 20 Sur 0 -- -- 49
2020-03-14 15:00:00 19.2 12 Sur 24 Sudeste 0 -- -- 51
2020-03-14 14:00:00 19.4 16 Sudeste 26 Sudeste 0 -- -- 54
2020-03-14 13:00:00 20 11 Sudeste 22 Sudeste 0 -- -- 49
2020-03-14 12:00:00 19.2 14 Este 24 Este 0 -- -- 50
2020-03-14 11:00:00 17.6 10 Nordeste 22 Nordeste 0 -- -- 57
2020-03-14 10:00:00 15.9 13 Nordeste 19 Nordeste 0 -- -- 68
2020-03-14 09:00:00 13.3 7 Nordeste 12 Nordeste 0 -- -- 88
2020-03-14 08:00:00 10.7 6 Nordeste 11 Nordeste 0 -- -- 95
2020-03-14 07:00:00 10 4 Nordeste 12 Nordeste 0 -- -- 93
2020-03-14 06:00:00 11 10 Norte 13 Norte 0.2 -- -- 91
2020-03-14 05:00:00 11.4 6 Nordeste 21 Noroeste 0.2 -- -- 89
2020-03-14 04:00:00 12 6 Norte 12 Este 0.2 -- -- 88
2020-03-14 03:00:00 12.3 0 Calma 14 Este 0.2 -- -- 82
2020-03-14 02:00:00 12 10 Este 13 Nordeste 0 -- -- 84
2020-03-14 01:00:00 12.6 8 Nordeste 16 Nordeste 0 -- -- 83
2020-03-14 00:00:00 12.6 9 Nordeste 15 Nordeste 0 -- -- 85
2020-03-13 23:00:00 12.9 10 Nordeste 18 Norte 0 -- -- 85
2020-03-13 22:00:00 13.2 8 Nordeste 18 Norte 0 -- -- 85
2020-03-13 21:00:00 13.3 11 Nordeste 20 Norte 0 -- -- 85
2020-03-13 20:00:00 13.7 13 Norte 24 Nordeste 0 -- -- 83
2020-03-13 19:00:00 15 18 Nordeste 33 Norte 0 -- -- 78
2020-03-13 18:00:00 17.8 23 Norte 31 Norte 0 -- -- 69
2020-03-13 17:00:00 20.3 15 Este 34 Este 0 -- -- 49
2020-03-13 16:00:00 21 22 Este 38 Este 0 -- -- 54
2020-03-13 15:00:00 21.8 17 Nordeste 37 Nordeste 0 -- -- 56
2020-03-13 14:00:00 21.4 13 Nordeste 37 Nordeste 0 -- -- 60
2020-03-13 13:00:00 20.7 21 Nordeste 36 Norte 0 -- -- 61
2020-03-13 12:00:00 20.3 22 Nordeste 38 Nordeste 0 -- -- 61
2020-03-13 11:00:00 19.4 25 Nordeste 38 Nordeste 0 -- -- 61
2020-03-13 10:00:00 17.8 18 Nordeste 35 Nordeste 0 -- -- 70
2020-03-13 09:00:00 15 16 Nordeste 23 Nordeste 0 -- -- 81
2020-03-13 08:00:00 12.6 11 Nordeste 21 Nordeste 0 -- -- 86
2020-03-13 07:00:00 11.7 13 Nordeste 23 Nordeste 0 -- -- 86
2020-03-13 06:00:00 11.4 14 Nordeste 23 Nordeste 0 -- -- 86
2020-03-13 05:00:00 11.1 10 Nordeste 16 Nordeste 0 -- -- 84
2020-03-13 04:00:00 10.9 12 Nordeste 18 Nordeste 0 -- -- 88
2020-03-13 03:00:00 8.5 3 Norte 8 Nordeste 0 -- -- 94
2020-03-13 02:00:00 7.4 2 Nordeste 7 Norte 0 -- -- 92
2020-03-13 01:00:00 7.7 3 Nordeste 5 Sudeste 0 -- -- 91
2020-03-13 00:00:00 9 0 Calma 6 Norte 0 -- -- 87
2020-03-12 23:00:00 8.6 0 Calma 4 Norte 0 -- -- 91
2020-03-12 22:00:00 9.6 2 Nordeste 3 Nordeste 0 -- -- 89
2020-03-12 21:00:00 10.5 0 Calma 3 Nordeste 0 -- -- 85
2020-03-12 20:00:00 13.2 0 Calma 6 Este 0 -- -- 77
2020-03-12 19:00:00 16.7 3 Este 8 Este 0 -- -- 69
2020-03-12 18:00:00 19.2 7 Sudeste 14 Sudeste 0 -- -- 55
2020-03-12 17:00:00 21.1 11 Sudeste 17 Sudeste 0 -- -- 44
2020-03-12 16:00:00 22.3 11 Sudeste 19 Sur 0 -- -- 43
2020-03-12 15:00:00 22.5 11 Sur 19 Sur 0 -- -- 39
2020-03-12 14:00:00 21.9 13 Sur 26 Sur 0 -- -- 38
2020-03-12 13:00:00 22.4 12 Sur 19 Sur 0 -- -- 39
2020-03-12 12:00:00 21.2 10 Sudoeste 17 Sur 0 -- -- 44
2020-03-12 11:00:00 19.5 13 Sur 17 Sur 0 -- -- 54
2020-03-12 10:00:00 15.3 3 Noroeste 5 Norte 0 -- -- 100
2020-03-12 09:00:00 11.2 4 Norte 6 Norte 0 -- -- 100
2020-03-12 08:00:00 8 0 Calma -- -- 0 -- -- 100
2020-03-12 07:00:00 6.8 0 Calma -- -- 0 -- -- 100
2020-03-12 06:00:00 6.2 0 Calma -- -- 0 -- -- 100
2020-03-12 05:00:00 6.5 0 Calma -- -- 0 -- -- 99
2020-03-12 04:00:00 7.3 0 Calma -- -- 0 -- -- 99
2020-03-12 03:00:00 8.4 0 Calma -- -- 0 -- -- 99
2020-03-12 02:00:00 9.1 0 Calma -- -- 0 -- -- 98
2020-03-12 01:00:00 11.3 0 Calma -- -- 0 -- -- 97
2020-03-12 00:00:00 11.7 0 Calma 0 Calma 0 -- -- 97
2020-03-11 23:00:00 10.6 0 Calma 3 Norte 0 -- -- 97
2020-03-11 22:00:00 10.5 2 Norte 4 Sudeste 0 -- -- 94
2020-03-11 21:00:00 11.4 4 Sudeste 4 Sudeste 0 -- -- 93
2020-03-11 20:00:00 13.7 2 Sur 8 Sudoeste 0 -- -- 91
2020-03-11 19:00:00 15.8 4 Sudoeste 15 Sudoeste 0 -- -- 90
2020-03-11 18:00:00 17.3 6 Sudoeste 20 Sudoeste 0 -- -- 84
2020-03-11 17:00:00 17.7 12 Sudoeste 23 Sur 0 -- -- 82
2020-03-11 16:00:00 18.8 10 Sudoeste 24 Sudoeste 0 -- -- 78
2020-03-11 15:00:00 18.1 15 Sudoeste 28 Sudoeste 0 -- -- 79
2020-03-11 14:00:00 18.2 17 Sudoeste 28 Sudoeste 0 -- -- 77
2020-03-11 13:00:00 18.6 14 Sudoeste 24 Sudoeste 0 -- -- 75
2020-03-11 12:00:00 18.8 13 Oeste 22 Sudoeste 0 -- -- 73
2020-03-11 11:00:00 18.4 9 Sur 17 Sudoeste 0 -- -- 76
2020-03-11 10:00:00 17.1 10 Sur 17 Sur 0 -- -- 83
2020-03-11 09:00:00 11.5 0 Calma 4 Norte 0 -- -- 95
2020-03-11 08:00:00 8.5 0 Calma 5 Sudeste 0 -- -- 97
2020-03-11 07:00:00 6.1 3 Sudeste 4 Sudeste 0 -- -- 96
2020-03-11 06:00:00 7 0 Calma 4 Sudeste 0 -- -- 95
2020-03-11 05:00:00 7.9 0 Calma 3 Noroeste 0 -- -- 94
2020-03-11 04:00:00 10.3 3 Norte 6 Norte 0 -- -- 92
2020-03-11 03:00:00 12.2 3 Norte 15 Oeste 0 -- -- 90
2020-03-11 02:00:00 13 5 Oeste 14 Oeste 0 -- -- 90
2020-03-11 01:00:00 14.2 10 Oeste 16 Oeste 0 -- -- 90
2020-03-11 00:00:00 14.5 13 Oeste 21 Oeste 0 -- -- 89
2020-03-10 23:00:00 14.5 13 Oeste 22 Sudoeste 0 -- -- 87
2020-03-10 22:00:00 14.5 13 Oeste 24 Oeste 0 -- -- 85
2020-03-10 21:00:00 14.6 15 Oeste 28 Oeste 0 -- -- 84
2020-03-10 20:00:00 14.6 19 Oeste 32 Oeste 0 -- -- 81
2020-03-10 19:00:00 14.8 21 Oeste 42 Oeste 0 -- -- 79
2020-03-10 18:00:00 15.2 22 Oeste 38 Oeste 0 -- -- 75
2020-03-10 17:00:00 16.1 24 Oeste 42 Oeste 0 -- -- 72
2020-03-10 16:00:00 16.6 22 Oeste 40 Oeste 0 -- -- 66
2020-03-10 15:00:00 16.7 21 Oeste 37 Oeste 0 -- -- 64
2020-03-10 14:00:00 15.9 18 Oeste 26 Oeste 0 -- -- 66
2020-03-10 13:00:00 16.6 15 Oeste 26 Oeste 0 -- -- 65
2020-03-10 12:00:00 16.5 11 Sudoeste 21 Oeste 0 -- -- 63
2020-03-10 11:00:00 17 0 Calma 10 Norte 0 -- -- 64
2020-03-10 10:00:00 14.3 5 Norte 9 Norte 0 -- -- 73
2020-03-10 09:00:00 12.2 3 Noroeste 5 Nordeste 0 -- -- 84
2020-03-10 08:00:00 7.8 2 Noroeste 8 Norte 0 -- -- 96
2020-03-10 07:00:00 4.6 0 Calma 8 Sudeste 0 -- -- 95
2020-03-10 06:00:00 4.5 2 Nordeste 5 Nordeste 0 -- -- 96
2020-03-10 05:00:00 4.4 0 Calma 4 Este 0 -- -- 93
2020-03-10 04:00:00 5.5 0 Calma 3 Sudeste 0 -- -- 92
2020-03-10 03:00:00 8.1 0 Calma 5 Norte 0 -- -- 89
2020-03-10 02:00:00 9.8 4 Norte 13 Este 0 -- -- 90
2020-03-10 01:00:00 10.2 3 Noroeste 9 Este 0 -- -- 92
2020-03-10 00:00:00 8.8 3 Norte 6 Nordeste 0 -- -- 94
2020-03-09 23:00:00 6.7 2 Sudeste 4 Sudeste 0 -- -- 91
2020-03-09 22:00:00 9.3 3 Nordeste 10 Este 0 -- -- 91
2020-03-09 21:00:00 9.3 8 Sudeste 10 Sudeste 0 -- -- 91
2020-03-09 20:00:00 10.3 9 Sudeste 14 Sudeste 0 -- -- 88
2020-03-09 19:00:00 12.3 9 Sudeste 16 Sur 0 -- -- 81
2020-03-09 18:00:00 14.9 8 Sudeste 20 Sudeste 0 -- -- 74
2020-03-09 17:00:00 14.5 12 Sudeste 26 Sudeste 0 -- -- 77
2020-03-09 16:00:00 14.6 15 Sudeste 22 Este 0 -- -- 76
2020-03-09 15:00:00 15.1 17 Este 33 Este 0 -- -- 74
2020-03-09 14:00:00 17.4 15 Noroeste 31 Noroeste 0 -- -- 56
2020-03-09 13:00:00 17.8 23 Noroeste 35 Noroeste 0 -- -- 51
2020-03-09 12:00:00 17.5 26 Noroeste 40 Noroeste 0 -- -- 51
2020-03-09 11:00:00 17.3 26 Noroeste 36 Noroeste 0 -- -- 50
2020-03-09 10:00:00 16.4 10 Noroeste 36 Noroeste 0 -- -- 60
2020-03-09 09:00:00 14.1 25 Noroeste 35 Noroeste 0 -- -- 77
2020-03-09 08:00:00 6.8 0 Calma 6 Sudeste 0 -- -- 98
2020-03-09 07:00:00 5.4 0 Calma 3 Sudeste 0 -- -- 97
2020-03-09 06:00:00 5.4 0 Calma 3 Sudeste 0 -- -- 96
2020-03-09 05:00:00 6.2 0 Calma 2 Sudeste 0 -- -- 94
2020-03-09 04:00:00 7.5 0 Calma 4 Sudeste 0 -- -- 95
2020-03-09 03:00:00 7.7 0 Calma 3 Sudeste 0 -- -- 94
2020-03-09 02:00:00 8.6 0 Calma 4 Sudeste 0 -- -- 94
2020-03-09 01:00:00 9.5 0 Calma 4 Sur 0 -- -- 94
2020-03-09 00:00:00 10.2 0 Calma 4 Norte 0 -- -- 93
2020-03-08 23:00:00 10 0 Calma 4 Sudeste 0 -- -- 91
2020-03-08 22:00:00 11.5 0 Calma 7 Oeste 0 -- -- 90
2020-03-08 21:00:00 14.2 5 Sudoeste 18 Oeste 0 -- -- 89
2020-03-08 20:00:00 14.2 4 Sudoeste 19 Sudoeste 0 -- -- 86
2020-03-08 19:00:00 14.7 11 Sudoeste 24 Oeste 0 -- -- 85
2020-03-08 18:00:00 16 18 Oeste 30 Oeste 0 -- -- 78
2020-03-08 17:00:00 16.8 21 Oeste 36 Oeste 0 -- -- 70
2020-03-08 16:00:00 17 30 Oeste 38 Oeste 0 -- -- 71
2020-03-08 15:00:00 18.1 19 Oeste 32 Oeste 0 -- -- 59
2020-03-08 14:00:00 17.5 23 Oeste 36 Oeste 0 -- -- 62
2020-03-08 13:00:00 17.3 23 Oeste 32 Oeste 0 -- -- 67
2020-03-08 12:00:00 17 14 Sudoeste 24 Oeste 0 -- -- 74
2020-03-08 11:00:00 16.8 13 Sudoeste 23 Oeste 0 -- -- 67
2020-03-08 10:00:00 15.2 6 Oeste 12 Sudoeste 0 -- -- 73
2020-03-08 09:00:00 10.2 2 Norte 4 Oeste 0 -- -- 85
2020-03-08 08:00:00 6.8 0 Calma 4 Noroeste 0 -- -- 93
2020-03-08 07:00:00 6.4 3 Norte 5 Sudeste 0 -- -- 92
2020-03-08 06:00:00 7.7 0 Calma 4 Noroeste 0 -- -- 89
2020-03-08 05:00:00 8.4 0 Calma 3 Sur 0 -- -- 91
2020-03-08 04:00:00 7.9 0 Calma 6 Norte 0 -- -- 90
2020-03-08 03:00:00 7.2 0 Calma 3 Sur 0 -- -- 92
2020-03-08 02:00:00 6.3 3 Sudeste 12 Noroeste 0 -- -- 92
2020-03-08 01:00:00 4.6 4 Sudeste 5 Sudeste 0 -- -- 92
2020-03-08 00:00:00 4.7 0 Calma 4 Este 0 -- -- 89
2020-03-07 23:00:00 6.3 2 Norte 5 Norte 0 -- -- 90
2020-03-07 22:00:00 6.2 4 Norte 7 Norte 0 -- -- 88
2020-03-07 21:00:00 6.7 0 Calma 9 Sudeste 0 -- -- 88
2020-03-07 20:00:00 7.8 5 Sudeste 11 Sudeste 0 -- -- 82
2020-03-07 19:00:00 10.7 7 Sudeste 17 Sudeste 0 -- -- 74
2020-03-07 18:00:00 14 13 Sudeste 21 Sur 0 -- -- 63
2020-03-07 17:00:00 15.2 15 Sudeste 26 Sudeste 0 -- -- 56
2020-03-07 16:00:00 14.9 18 Sudeste 32 Sudeste 0 -- -- 55
2020-03-07 15:00:00 16.2 24 Este 36 Este 0 -- -- 48
2020-03-07 14:00:00 17 12 Oeste 29 Oeste 0 -- -- 49
2020-03-07 13:00:00 15.3 4 Nordeste 20 Oeste 0 -- -- 47
2020-03-07 12:00:00 14.8 9 Noroeste 21 Noroeste 0 -- -- 51
2020-03-07 11:00:00 14.4 13 Noroeste 30 Noroeste 0 -- -- 54
2020-03-07 10:00:00 13.5 6 Oeste 14 Noroeste 0 -- -- 59
2020-03-07 09:00:00 9.7 6 Oeste 10 Oeste 0 -- -- 76
2020-03-07 08:00:00 4.5 2 Sur 9 Sudeste 0 -- -- 88
2020-03-07 07:00:00 4.7 6 Sudeste 11 Este 0 -- -- 88
2020-03-07 06:00:00 3.6 3 Sudeste 5 Sudoeste 0 -- -- 86
2020-03-07 05:00:00 4.3 0 Calma 6 Oeste 0 -- -- 81
2020-03-07 04:00:00 8.2 5 Oeste 17 Noroeste 0 -- -- 71
2020-03-07 03:00:00 9.7 15 Noroeste 26 Noroeste 0 -- -- 68
2020-03-07 02:00:00 9.5 9 Noroeste 24 Norte 0 -- -- 70
2020-03-07 01:00:00 10.4 17 Noroeste 39 Noroeste 0 -- -- 64
2020-03-07 00:00:00 10.4 24 Noroeste 40 Noroeste 0 -- -- 66
2020-03-06 23:00:00 11.1 26 Noroeste 51 Noroeste 0 -- -- 64
2020-03-06 22:00:00 11.9 40 Noroeste 62 Noroeste 0 -- -- 59
2020-03-06 21:00:00 12.7 41 Noroeste 61 Noroeste 0 -- -- 56
2020-03-06 20:00:00 13 33 Noroeste 63 Noroeste 0 -- -- 54
2020-03-06 19:00:00 13.1 39 Noroeste 78 Noroeste 0 -- -- 51
2020-03-06 18:00:00 13.7 36 Noroeste 62 Noroeste 0 -- -- 54
2020-03-06 17:00:00 14.1 38 Noroeste 57 Noroeste 0 -- -- 51
2020-03-06 16:00:00 15 39 Oeste 57 Oeste 0 -- -- 58
2020-03-06 15:00:00 13.7 39 Oeste 66 Noroeste 0 -- -- 63
2020-03-06 14:00:00 16 35 Noroeste 57 Oeste 0 -- -- 50
2020-03-06 13:00:00 17.6 35 Oeste 55 Oeste 0 -- -- 51
2020-03-06 12:00:00 16.4 30 Oeste 46 Oeste 0 -- -- 71
2020-03-06 11:00:00 16.6 28 Oeste 42 Oeste 0 -- -- 59
2020-03-06 10:00:00 15.5 28 Oeste 44 Oeste 0 -- -- 67
2020-03-06 09:00:00 14.8 23 Oeste 32 Oeste 0 -- -- 67
2020-03-06 08:00:00 11.8 10 Oeste 41 Oeste 0 -- -- 70
2020-03-06 07:00:00 12.5 15 Noroeste 25 Noroeste 0 -- -- 64
2020-03-06 06:00:00 12.7 15 Noroeste 22 Noroeste 0 -- -- 62
2020-03-06 05:00:00 13.3 14 Oeste 28 Oeste 0 -- -- 58
2020-03-06 04:00:00 10.9 6 Sudoeste 13 Noroeste 0 -- -- 61
2020-03-06 03:00:00 8.9 0 Calma 17 Noroeste 0 -- -- 76
2020-03-06 02:00:00 14.1 13 Noroeste 23 Noroeste 0 -- -- 59
2020-03-06 01:00:00 13.9 6 Oeste 15 Noroeste 0 -- -- 68
2020-03-06 00:00:00 14 4 Noroeste 22 Noroeste 0 -- -- 74
2020-03-05 23:00:00 15.4 14 Oeste 28 Oeste 0 -- -- 81
2020-03-05 22:00:00 16.2 19 Oeste 35 Oeste 0 -- -- 85
2020-03-05 21:00:00 16.8 24 Oeste 38 Oeste 0 -- -- 81
2020-03-05 20:00:00 16.1 27 Oeste 40 Oeste 0 -- -- 86
2020-03-05 19:00:00 16.4 26 Oeste 39 Sudoeste 0 -- -- 83
2020-03-05 18:00:00 16.9 21 Oeste 36 Oeste 0 -- -- 80
2020-03-05 17:00:00 18.1 16 Sudoeste 37 Sudoeste 0 -- -- 75
2020-03-05 16:00:00 18.6 18 Sudoeste 39 Sudoeste 0 -- -- 72
2020-03-05 15:00:00 18.5 21 Sudoeste 42 Sudoeste 0 -- -- 75
2020-03-05 14:00:00 17.6 17 Sudoeste 44 Sudoeste 0 -- -- 82
2020-03-05 13:00:00 18.3 22 Sudoeste 35 Sudoeste 0 -- -- 79
2020-03-05 12:00:00 18.3 17 Sudoeste 34 Oeste 0 -- -- 76
2020-03-05 11:00:00 17.9 23 Oeste 34 Sudoeste 0 -- -- 76
2020-03-05 10:00:00 17.4 15 Sudoeste 31 Oeste 0 -- -- 80
2020-03-05 09:00:00 16.9 14 Sudoeste 27 Sudoeste 0 -- -- 82
2020-03-05 08:00:00 15.3 16 Sudoeste 26 Sudoeste 0 -- -- 94
2020-03-05 07:00:00 14.4 13 Sudoeste 23 Sudoeste 0 -- -- 98
2020-03-05 06:00:00 14 10 Sudoeste 18 Sudoeste 0 -- -- 99
2020-03-05 05:00:00 11 0 Calma 6 Noroeste 0 -- -- 98
2020-03-05 04:00:00 9.5 3 Oeste 7 Sur 0 -- -- 100
2020-03-05 03:00:00 8.4 3 Sudeste 4 Norte 0 -- -- 97
2020-03-05 02:00:00 9.9 0 Calma 4 Norte 0 -- -- 96
2020-03-05 01:00:00 10.6 3 Norte 5 Sudeste 0 -- -- 94
2020-03-05 00:00:00 12.4 0 Calma 7 Sudoeste 0 -- -- 94
2020-03-04 23:00:00 14.6 5 Sudoeste 13 Sudoeste 0 -- -- 95
2020-03-04 22:00:00 14.7 7 Sudoeste 14 Sudoeste 0 -- -- 96
2020-03-04 21:00:00 11.9 5 Sur 8 Sur 0 -- -- 94
2020-03-04 20:00:00 13.1 6 Sudeste 8 Sudeste 0 -- -- 91
2020-03-04 19:00:00 15.7 2 Sur 13 Sudoeste 0 -- -- 87
2020-03-04 18:00:00 17 8 Sudoeste 23 Sudoeste 0 -- -- 84
2020-03-04 17:00:00 17.4 13 Sudoeste 28 Sudoeste 0 -- -- 77
2020-03-04 16:00:00 17.3 13 Sudoeste 28 Sudoeste 0 -- -- 70
2020-03-04 15:00:00 17.6 17 Sudoeste 35 Sudoeste 0 -- -- 76
2020-03-04 14:00:00 16.8 21 Sudoeste 31 Sudoeste 0 -- -- 77
2020-03-04 13:00:00 16.9 21 Sudoeste 31 Sudoeste 0 -- -- 72
2020-03-04 12:00:00 16.7 18 Sur 30 Sur 0 -- -- 68
2020-03-04 11:00:00 15.5 17 Sur 29 Sur 0 -- -- 70
2020-03-04 10:00:00 15.1 12 Sur 22 Sur 0 -- -- 72
2020-03-04 09:00:00 10 4 Noroeste 9 Norte 0 -- -- 90
2020-03-04 08:00:00 6.3 0 Calma 3 Sur 0 -- -- 95
2020-03-04 07:00:00 5 0 Calma 5 Sudeste 0 -- -- 92
2020-03-04 06:00:00 6 0 Calma 5 Sudoeste 0 -- -- 90
2020-03-04 05:00:00 8.2 0 Calma 4 Sudoeste 0 -- -- 88
2020-03-04 04:00:00 10.5 2 Nordeste 15 Nordeste 0 -- -- 84
2020-03-04 03:00:00 11.9 11 Nordeste 23 Nordeste 0 -- -- 80
2020-03-04 02:00:00 12.9 13 Nordeste 33 Noroeste 0 -- -- 75
2020-03-04 01:00:00 14.7 10 Oeste 24 Oeste 0 -- -- 55
2020-03-04 00:00:00 15.6 16 Noroeste 50 Noroeste 0 -- -- 56
2020-03-03 23:00:00 16.9 39 Noroeste 66 Noroeste 0 -- -- 53
2020-03-03 22:00:00 18.2 43 Noroeste 75 Noroeste 0 -- -- 49
2020-03-03 21:00:00 16.5 42 Oeste 64 Oeste 0 -- -- 73
2020-03-03 20:00:00 16.6 41 Oeste 67 Oeste 0 -- -- 72
2020-03-03 19:00:00 15.8 37 Oeste 56 Oeste 0 -- -- 77
2020-03-03 18:00:00 15.7 34 Oeste 56 Sudoeste 0 -- -- 76
2020-03-03 17:00:00 16.4 38 Oeste 56 Oeste 0 -- -- 65
2020-03-03 16:00:00 16 35 Oeste 55 Sudoeste 0 -- -- 72
2020-03-03 15:00:00 15.6 42 Oeste 70 Oeste 0 -- -- 58
2020-03-03 14:00:00 15.5 42 Oeste 66 Oeste 0 -- -- 58
2020-03-03 13:00:00 15.2 40 Oeste 54 Oeste 0 -- -- 62
2020-03-03 12:00:00 14.7 33 Oeste 51 Oeste 0 -- -- 63
2020-03-03 11:00:00 14.1 30 Oeste 46 Oeste 0 -- -- 64
2020-03-03 10:00:00 14.3 28 Oeste 37 Oeste 0 -- -- 60
2020-03-03 09:00:00 12.8 20 Oeste 29 Oeste 0 -- -- 61
2020-03-03 08:00:00 11.6 15 Oeste 38 Oeste 0 -- -- 57
2020-03-03 07:00:00 11.3 17 Noroeste 36 Oeste 0 -- -- 54
2020-03-03 06:00:00 11.2 12 Oeste 37 Noroeste 0 -- -- 56
2020-03-03 05:00:00 11.2 23 Noroeste 55 Noroeste 0 -- -- 59
2020-03-03 04:00:00 11.7 29 Noroeste 46 Noroeste 0 -- -- 58
2020-03-03 03:00:00 11.8 25 Noroeste 59 Noroeste 0 -- -- 57
2020-03-03 02:00:00 11.8 35 Noroeste 63 Noroeste 0 -- -- 56
2020-03-03 01:00:00 12.4 48 Noroeste 75 Noroeste 0 -- -- 53
2020-03-03 00:00:00 12.5 46 Noroeste 68 Noroeste 0 -- -- 53